Madeline — WDE3220 — position and weather

sailwx.info

Track history (hours):
 
Tides and Currents Weather Stations Pressure Air Temp Water Temp Dewpoint Dewpoint Depression Visibility Wind Speed Wind Dir Waves Ship Positions

Madeline

Owner: TUG MADELINE, LLC, NEW CASTLE, DE. More information available from US FCC via Universal Licensing System and Coast Guard Vessel Documentation Center.

Last reported at 2017-Mar-29 20:34 UTC. Time now 2017-Mar-29 21:13 UTC.
Position N 39°54' W 075°08'.

Length 23 m; draft 4.6 m.

Type: Tug. MMSI: 367335830.

Date/timePositionNaut miles runAvg speedWind from/ knotsBaromVisibWave heightAir tempDewpointWater temp
2017-Mar-29 20:34N 39°54' W 075°08'2 2.0
2017-Mar-29 19:33N 39°53' W 075°10'2 2.3
2017-Mar-29 18:33N 39°55' W 075°13'2 1.9
2017-Mar-29 17:33N 39°53' W 075°11'0 0.0
2017-Mar-29 16:33N 39°53' W 075°11'2 2.4
2017-Mar-29 15:33N 39°54' W 075°08'0 0.2
2017-Mar-29 14:33N 39°54' W 075°08'0 0.0
2017-Mar-29 13:33N 39°54' W 075°08'1 0.8
2017-Mar-29 12:33N 39°53' W 075°08'1 0.7
2017-Mar-29 11:33N 39°54' W 075°08'0 0.0
2017-Mar-29 10:34N 39°54' W 075°08'0 0.0
2017-Mar-29 09:33N 39°54' W 075°08'0 0.0
2017-Mar-29 08:33N 39°54' W 075°08'0 0.0
2017-Mar-29 07:33N 39°54' W 075°08'0 0.0
2017-Mar-29 06:33N 39°54' W 075°08'0 0.0
2017-Mar-29 05:33N 39°54' W 075°08'0 0.0
2017-Mar-29 04:33N 39°54' W 075°08'2 1.7
2017-Mar-29 03:34N 39°53' W 075°10'1 1.2
2017-Mar-29 02:34N 39°53' W 075°11'0 0.0
2017-Mar-29 01:34N 39°53' W 075°11'0 0.0
2017-Mar-29 00:34N 39°53' W 075°11'0 0.0
2017-Mar-28 23:33N 39°53' W 075°11'0 0.0
2017-Mar-28 22:34N 39°53' W 075°11'0 0.0
2017-Mar-28 21:34N 39°53' W 075°11'0 0.0
2017-Mar-28 20:34N 39°53' W 075°11'0 0.0
2017-Mar-28 19:34N 39°53' W 075°11'0 0.0
2017-Mar-28 18:33N 39°53' W 075°11'0 0.0
2017-Mar-28 17:34N 39°53' W 075°11'0 0.0
2017-Mar-28 16:34N 39°53' W 075°11'0 0.0
2017-Mar-28 15:34N 39°53' W 075°11'0 0.0
2017-Mar-28 14:34N 39°53' W 075°11'0 0.0
2017-Mar-28 13:34N 39°53' W 075°11'0 0.0
2017-Mar-28 12:33N 39°53' W 075°11'0 0.0
2017-Mar-28 11:34N 39°53' W 075°11'0 0.0
2017-Mar-28 10:34N 39°53' W 075°11'1 1.0
2017-Mar-28 09:34N 39°53' W 075°12'4 3.5
2017-Mar-28 08:34N 39°51' W 075°16'2 1.8
2017-Mar-28 07:34N 39°51' W 075°18'3 3.0
2017-Mar-28 06:33N 39°51' W 075°15'3 3.3
2017-Mar-28 05:33N 39°53' W 075°11'0 0.0
2017-Mar-28 04:34N 39°53' W 075°11'0 0.0
2017-Mar-28 03:34N 39°53' W 075°11'0 0.0
2017-Mar-28 02:33N 39°53' W 075°11'0 0.0
2017-Mar-28 01:34N 39°53' W 075°11'0 0.0
2017-Mar-28 00:34N 39°53' W 075°11'0 0.0
2017-Mar-27 23:34N 39°53' W 075°11'0 0.0
2017-Mar-27 22:34N 39°53' W 075°11'0 0.0
2017-Mar-27 21:34N 39°53' W 075°11'0 0.0
2017-Mar-27 20:34N 39°53' W 075°11'4 3.7
2017-Mar-27 19:34N 39°51' W 075°15'9 8.9
2017-Mar-27 18:34N 39°48' W 075°26'0 0.1
2017-Mar-27 17:34N 39°48' W 075°26'4 3.6
2017-Mar-27 16:34N 39°50' W 075°22'9 8.9
2017-Mar-27 15:34N 39°53' W 075°11'0 0.0
2017-Mar-27 14:34N 39°53' W 075°11'0 0.0
2017-Mar-27 13:34N 39°53' W 075°11'0 0.0
2017-Mar-27 12:34N 39°53' W 075°11'0 0.0
2017-Mar-27 11:34N 39°53' W 075°11'0 0.0
2017-Mar-27 10:34N 39°53' W 075°11'0 0.0
2017-Mar-27 09:34N 39°53' W 075°11'0 0.0
2017-Mar-27 08:34N 39°53' W 075°11'0 0.0
2017-Mar-27 07:34N 39°53' W 075°11'0 0.0
2017-Mar-27 06:33N 39°53' W 075°11'0 0.0
2017-Mar-27 05:34N 39°53' W 075°11'0 0.0
2017-Mar-27 04:34N 39°53' W 075°11'0 0.0
2017-Mar-27 03:34N 39°53' W 075°11'0 0.0
2017-Mar-27 02:34N 39°53' W 075°11'0 0.0
2017-Mar-27 01:34N 39°53' W 075°11'9 8.5
2017-Mar-27 00:33N 39°50' W 075°21'3 3.2
2017-Mar-26 23:34N 39°48' W 075°25'1 0.9
2017-Mar-26 22:34N 39°48' W 075°26'0 0.1
2017-Mar-26 21:34N 39°48' W 075°26'0 0.0
2017-Mar-26 20:34N 39°48' W 075°26'0 0.0
2017-Mar-26 19:34N 39°48' W 075°26'0 0.0
2017-Mar-26 18:34N 39°48' W 075°26'0 0.0
2017-Mar-26 17:34N 39°48' W 075°26'0 0.0
2017-Mar-26 16:33N 39°48' W 075°26'0 0.0
2017-Mar-26 15:34N 39°48' W 075°26'0 0.0
2017-Mar-26 14:33N 39°48' W 075°26'1 1.3
2017-Mar-26 13:34N 39°49' W 075°24'0 0.1
2017-Mar-26 12:34N 39°49' W 075°24'1 1.3
2017-Mar-26 11:34N 39°48' W 075°26'0 0.0
2017-Mar-26 10:34N 39°48' W 075°26'2 1.8
2017-Mar-26 09:34N 39°49' W 075°24'1 0.5
2017-Mar-26 08:34N 39°49' W 075°24'0 0.0
2017-Mar-26 07:34N 39°49' W 075°24'4 3.9
2017-Mar-26 06:33N 39°51' W 075°20'4 3.6
2017-Mar-26 05:33N 39°51' W 075°16'0 0.0
2017-Mar-26 04:34N 39°51' W 075°16'0 0.0
2017-Mar-26 03:33N 39°51' W 075°16'0 0.0
2017-Mar-26 02:33N 39°51' W 075°16'0 0.0
2017-Mar-26 01:33N 39°51' W 075°16'0 0.0
2017-Mar-26 00:33N 39°51' W 075°16'0 0.0
2017-Mar-25 23:33N 39°51' W 075°16'0 0.0
2017-Mar-25 22:34N 39°51' W 075°16'0 0.0
2017-Mar-25 21:33N 39°51' W 075°16'0 0.0
2017-Mar-25 20:33N 39°51' W 075°16'0 0.0
2017-Mar-25 19:33N 39°51' W 075°16'0 0.3
2017-Mar-25 18:33N 39°51' W 075°16'0 0.3
2017-Mar-25 17:33N 39°51' W 075°16'0 0.0
2017-Mar-25 16:33N 39°51' W 075°16'1 0.6
2017-Mar-25 15:34N 39°51' W 075°15'0 0.0
2017-Mar-25 14:33N 39°51' W 075°15'1 0.6
2017-Mar-25 13:33N 39°51' W 075°16'0 0.0
2017-Mar-25 12:33N 39°51' W 075°16'0 0.0
2017-Mar-25 11:33N 39°51' W 075°16'0 0.0
2017-Mar-25 10:33N 39°51' W 075°16'0 0.0
2017-Mar-25 09:33N 39°51' W 075°16'0 0.0
2017-Mar-25 08:33N 39°51' W 075°16'0 0.0
2017-Mar-25 07:34N 39°51' W 075°16'10 9.9
2017-Mar-25 06:33N 39°47' W 075°28'1110.5
2017-Mar-25 05:34N 39°38' W 075°35'3 3.1
2017-Mar-25 04:33N 39°35' W 075°35'1 1.0
2017-Mar-25 03:33N 39°35' W 075°34'1 1.0
2017-Mar-25 02:33N 39°35' W 075°35'0 0.0
2017-Mar-25 01:33N 39°35' W 075°35'0 0.0
2017-Mar-25 00:33N 39°35' W 075°35'0 0.3
2017-Mar-24 23:33N 39°35' W 075°36'1 1.4
2017-Mar-24 22:33N 39°34' W 075°34'4 4.4
2017-Mar-24 21:33N 39°39' W 075°34'5 4.7
2017-Mar-24 20:33N 39°43' W 075°32'0 0.1
2017-Mar-24 19:33N 39°43' W 075°32'0 0.5
2017-Mar-24 18:33N 39°43' W 075°31'0 0.0
2017-Mar-24 17:33N 39°43' W 075°31'0 0.0
2017-Mar-24 16:34N 39°43' W 075°31'0 0.0
2017-Mar-24 15:33N 39°43' W 075°31'0 0.0
2017-Mar-24 14:33N 39°43' W 075°31'0 0.0
2017-Mar-24 13:34N 39°43' W 075°31'0 0.0
2017-Mar-24 12:33N 39°43' W 075°31'0 0.0
2017-Mar-24 11:33N 39°43' W 075°31'0 0.0
2017-Mar-24 10:33N 39°43' W 075°31'0 0.0
2017-Mar-24 09:33N 39°43' W 075°31'0 0.0
2017-Mar-24 08:34N 39°43' W 075°31'0 0.0
2017-Mar-24 07:33N 39°43' W 075°31'0 0.0
2017-Mar-24 06:33N 39°43' W 075°31'0 0.0
2017-Mar-24 05:33N 39°43' W 075°31'0 0.0
2017-Mar-24 04:33N 39°43' W 075°31'0 0.0
2017-Mar-24 03:33N 39°43' W 075°31'0 0.0
2017-Mar-24 02:33N 39°43' W 075°31'0 0.0
2017-Mar-24 01:33N 39°43' W 075°31'0 0.0
2017-Mar-24 00:33N 39°43' W 075°31'0 0.0
2017-Mar-23 23:34N 39°43' W 075°31'0 0.0
2017-Mar-23 22:33N 39°43' W 075°31'0 0.0
2017-Mar-23 21:33N 39°43' W 075°31'0 0.0
2017-Mar-23 20:33N 39°43' W 075°31'0 0.0
2017-Mar-23 19:33N 39°43' W 075°31'0 0.4
2017-Mar-23 18:33N 39°43' W 075°31'9 9.3
2017-Mar-23 17:34N 39°34' W 075°33'10 9.8
2017-Mar-23 16:33N 39°24' W 075°30'1111.0
2017-Mar-23 15:33N 39°16' W 075°20'6 0.5
2017-Mar-23 04:12N 39°11' W 075°16'913.9
2017-Mar-23 03:33N 39°18' W 075°23'1413.6
2017-Mar-23 02:33N 39°29' W 075°34'7 6.5
2017-Mar-23 01:33N 39°35' W 075°35'0 0.0
2017-Mar-23 00:33N 39°35' W 075°35'0 0.1
2017-Mar-22 23:33N 39°35' W 075°35'0 0.0
2017-Mar-22 22:33N 39°35' W 075°35'0 0.0
2017-Mar-22 21:33N 39°35' W 075°35'0 0.0
2017-Mar-22 20:33N 39°35' W 075°35'0 0.0
2017-Mar-22 19:33N 39°35' W 075°35'0 0.0
2017-Mar-22 18:33N 39°35' W 075°35'0 0.0
2017-Mar-22 17:33N 39°35' W 075°35'0 0.0
2017-Mar-22 16:33N 39°35' W 075°35'0 0.0
2017-Mar-22 15:33N 39°35' W 075°35'0 0.0
2017-Mar-22 14:33N 39°35' W 075°35'0 0.0
2017-Mar-22 13:33N 39°35' W 075°35'0 0.0
2017-Mar-22 12:33N 39°35' W 075°35'0 0.0
2017-Mar-22 11:33N 39°35' W 075°35'1 0.7
2017-Mar-22 10:33N 39°35' W 075°35'1312.8
2017-Mar-22 09:33N 39°23' W 075°28'1414.1
2017-Mar-22 08:33N 39°12' W 075°17'1312.6
2017-Mar-22 07:33N 38°60' W 075°13'0 0.4
2017-Mar-22 06:33N 38°59' W 075°13'3 3.0
2017-Mar-22 05:33N 39°02' W 075°14'9 9.0
2017-Mar-22 04:33N 39°11' W 075°16'1211.8
2017-Mar-22 03:33N 39°20' W 075°25'1413.8
2017-Mar-22 02:34N 39°33' W 075°33'1312.8
2017-Mar-22 01:34N 39°45' W 075°29'5 4.6
2017-Mar-22 00:34N 39°48' W 075°25'2 2.3
2017-Mar-21 23:33N 39°50' W 075°22'9 9.2
2017-Mar-21 22:34N 39°53' W 075°11'0 0.0
2017-Mar-21 21:33N 39°53' W 075°11'0 0.0
2017-Mar-21 20:34N 39°53' W 075°11'0 0.0
2017-Mar-21 19:34N 39°53' W 075°11'  
Track history (hours):
 
Tides and Currents Weather Stations Pressure Air Temp Water Temp Dewpoint Dewpoint Depression Visibility Wind Speed Wind Dir Waves Ship Positions

Madeline

Owner: TUG MADELINE, LLC, NEW CASTLE, DE. More information available from US FCC via Universal Licensing System and Coast Guard Vessel Documentation Center.

Last reported at 2017-Mar-29 20:34 UTC. Time now 2017-Mar-29 21:13 UTC.
Position N 39°54' W 075°08'.

Length 23 m; draft 4.6 m.

Type: Tug. MMSI: 367335830.

Date/timePositionNaut miles runAvg speedWind from/ knotsBaromVisibWave heightAir tempDewpointWater temp
2017-Mar-29 20:34N 39°54' W 075°08'2 2.0
2017-Mar-29 19:33N 39°53' W 075°10'2 2.3
2017-Mar-29 18:33N 39°55' W 075°13'2 1.9
2017-Mar-29 17:33N 39°53' W 075°11'0 0.0
2017-Mar-29 16:33N 39°53' W 075°11'2 2.4
2017-Mar-29 15:33N 39°54' W 075°08'0 0.2
2017-Mar-29 14:33N 39°54' W 075°08'0 0.0
2017-Mar-29 13:33N 39°54' W 075°08'1 0.8
2017-Mar-29 12:33N 39°53' W 075°08'1 0.7
2017-Mar-29 11:33N 39°54' W 075°08'0 0.0
2017-Mar-29 10:34N 39°54' W 075°08'0 0.0
2017-Mar-29 09:33N 39°54' W 075°08'0 0.0
2017-Mar-29 08:33N 39°54' W 075°08'0 0.0
2017-Mar-29 07:33N 39°54' W 075°08'0 0.0
2017-Mar-29 06:33N 39°54' W 075°08'0 0.0
2017-Mar-29 05:33N 39°54' W 075°08'0 0.0
2017-Mar-29 04:33N 39°54' W 075°08'2 1.7
2017-Mar-29 03:34N 39°53' W 075°10'1 1.2
2017-Mar-29 02:34N 39°53' W 075°11'0 0.0
2017-Mar-29 01:34N 39°53' W 075°11'0 0.0
2017-Mar-29 00:34N 39°53' W 075°11'0 0.0
2017-Mar-28 23:33N 39°53' W 075°11'0 0.0
2017-Mar-28 22:34N 39°53' W 075°11'0 0.0
2017-Mar-28 21:34N 39°53' W 075°11'0 0.0
2017-Mar-28 20:34N 39°53' W 075°11'0 0.0
2017-Mar-28 19:34N 39°53' W 075°11'0 0.0
2017-Mar-28 18:33N 39°53' W 075°11'0 0.0
2017-Mar-28 17:34N 39°53' W 075°11'0 0.0
2017-Mar-28 16:34N 39°53' W 075°11'0 0.0
2017-Mar-28 15:34N 39°53' W 075°11'0 0.0
2017-Mar-28 14:34N 39°53' W 075°11'0 0.0
2017-Mar-28 13:34N 39°53' W 075°11'0 0.0
2017-Mar-28 12:33N 39°53' W 075°11'0 0.0
2017-Mar-28 11:34N 39°53' W 075°11'0 0.0
2017-Mar-28 10:34N 39°53' W 075°11'1 1.0
2017-Mar-28 09:34N 39°53' W 075°12'4 3.5
2017-Mar-28 08:34N 39°51' W 075°16'2 1.8
2017-Mar-28 07:34N 39°51' W 075°18'3 3.0
2017-Mar-28 06:33N 39°51' W 075°15'3 3.3
2017-Mar-28 05:33N 39°53' W 075°11'0 0.0
2017-Mar-28 04:34N 39°53' W 075°11'0 0.0
2017-Mar-28 03:34N 39°53' W 075°11'0 0.0
2017-Mar-28 02:33N 39°53' W 075°11'0 0.0
2017-Mar-28 01:34N 39°53' W 075°11'0 0.0
2017-Mar-28 00:34N 39°53' W 075°11'0 0.0
2017-Mar-27 23:34N 39°53' W 075°11'0 0.0
2017-Mar-27 22:34N 39°53' W 075°11'0 0.0
2017-Mar-27 21:34N 39°53' W 075°11'0 0.0
2017-Mar-27 20:34N 39°53' W 075°11'4 3.7
2017-Mar-27 19:34N 39°51' W 075°15'9 8.9
2017-Mar-27 18:34N 39°48' W 075°26'0 0.1
2017-Mar-27 17:34N 39°48' W 075°26'4 3.6
2017-Mar-27 16:34N 39°50' W 075°22'9 8.9
2017-Mar-27 15:34N 39°53' W 075°11'0 0.0
2017-Mar-27 14:34N 39°53' W 075°11'0 0.0
2017-Mar-27 13:34N 39°53' W 075°11'0 0.0
2017-Mar-27 12:34N 39°53' W 075°11'0 0.0
2017-Mar-27 11:34N 39°53' W 075°11'0 0.0
2017-Mar-27 10:34N 39°53' W 075°11'0 0.0
2017-Mar-27 09:34N 39°53' W 075°11'0 0.0
2017-Mar-27 08:34N 39°53' W 075°11'0 0.0
2017-Mar-27 07:34N 39°53' W 075°11'0 0.0
2017-Mar-27 06:33N 39°53' W 075°11'0 0.0
2017-Mar-27 05:34N 39°53' W 075°11'0 0.0
2017-Mar-27 04:34N 39°53' W 075°11'0 0.0
2017-Mar-27 03:34N 39°53' W 075°11'0 0.0
2017-Mar-27 02:34N 39°53' W 075°11'0 0.0
2017-Mar-27 01:34N 39°53' W 075°11'9 8.5
2017-Mar-27 00:33N 39°50' W 075°21'3 3.2
2017-Mar-26 23:34N 39°48' W 075°25'1 0.9
2017-Mar-26 22:34N 39°48' W 075°26'0 0.1
2017-Mar-26 21:34N 39°48' W 075°26'0 0.0
2017-Mar-26 20:34N 39°48' W 075°26'0 0.0
2017-Mar-26 19:34N 39°48' W 075°26'0 0.0
2017-Mar-26 18:34N 39°48' W 075°26'0 0.0
2017-Mar-26 17:34N 39°48' W 075°26'0 0.0
2017-Mar-26 16:33N 39°48' W 075°26'0 0.0
2017-Mar-26 15:34N 39°48' W 075°26'0 0.0
2017-Mar-26 14:33N 39°48' W 075°26'1 1.3
2017-Mar-26 13:34N 39°49' W 075°24'0 0.1
2017-Mar-26 12:34N 39°49' W 075°24'1 1.3
2017-Mar-26 11:34N 39°48' W 075°26'0 0.0
2017-Mar-26 10:34N 39°48' W 075°26'2 1.8
2017-Mar-26 09:34N 39°49' W 075°24'1 0.5
2017-Mar-26 08:34N 39°49' W 075°24'0 0.0
2017-Mar-26 07:34N 39°49' W 075°24'4 3.9
2017-Mar-26 06:33N 39°51' W 075°20'4 3.6
2017-Mar-26 05:33N 39°51' W 075°16'0 0.0
2017-Mar-26 04:34N 39°51' W 075°16'0 0.0
2017-Mar-26 03:33N 39°51' W 075°16'0 0.0
2017-Mar-26 02:33N 39°51' W 075°16'0 0.0
2017-Mar-26 01:33N 39°51' W 075°16'0 0.0
2017-Mar-26 00:33N 39°51' W 075°16'0 0.0
2017-Mar-25 23:33N 39°51' W 075°16'0 0.0
2017-Mar-25 22:34N 39°51' W 075°16'0 0.0
2017-Mar-25 21:33N 39°51' W 075°16'0 0.0
2017-Mar-25 20:33N 39°51' W 075°16'0 0.0
2017-Mar-25 19:33N 39°51' W 075°16'0 0.3
2017-Mar-25 18:33N 39°51' W 075°16'0 0.3
2017-Mar-25 17:33N 39°51' W 075°16'0 0.0
2017-Mar-25 16:33N 39°51' W 075°16'1 0.6
2017-Mar-25 15:34N 39°51' W 075°15'0 0.0
2017-Mar-25 14:33N 39°51' W 075°15'1 0.6
2017-Mar-25 13:33N 39°51' W 075°16'0 0.0
2017-Mar-25 12:33N 39°51' W 075°16'0 0.0
2017-Mar-25 11:33N 39°51' W 075°16'0 0.0
2017-Mar-25 10:33N 39°51' W 075°16'0 0.0
2017-Mar-25 09:33N 39°51' W 075°16'0 0.0
2017-Mar-25 08:33N 39°51' W 075°16'0 0.0
2017-Mar-25 07:34N 39°51' W 075°16'10 9.9
2017-Mar-25 06:33N 39°47' W 075°28'1110.5
2017-Mar-25 05:34N 39°38' W 075°35'3 3.1
2017-Mar-25 04:33N 39°35' W 075°35'1 1.0
2017-Mar-25 03:33N 39°35' W 075°34'1 1.0
2017-Mar-25 02:33N 39°35' W 075°35'0 0.0
2017-Mar-25 01:33N 39°35' W 075°35'0 0.0
2017-Mar-25 00:33N 39°35' W 075°35'0 0.3
2017-Mar-24 23:33N 39°35' W 075°36'1 1.4
2017-Mar-24 22:33N 39°34' W 075°34'4 4.4
2017-Mar-24 21:33N 39°39' W 075°34'5 4.7
2017-Mar-24 20:33N 39°43' W 075°32'0 0.1
2017-Mar-24 19:33N 39°43' W 075°32'0 0.5
2017-Mar-24 18:33N 39°43' W 075°31'0 0.0
2017-Mar-24 17:33N 39°43' W 075°31'0 0.0
2017-Mar-24 16:34N 39°43' W 075°31'0 0.0
2017-Mar-24 15:33N 39°43' W 075°31'0 0.0
2017-Mar-24 14:33N 39°43' W 075°31'0 0.0
2017-Mar-24 13:34N 39°43' W 075°31'0 0.0
2017-Mar-24 12:33N 39°43' W 075°31'0 0.0
2017-Mar-24 11:33N 39°43' W 075°31'0 0.0
2017-Mar-24 10:33N 39°43' W 075°31'0 0.0
2017-Mar-24 09:33N 39°43' W 075°31'0 0.0
2017-Mar-24 08:34N 39°43' W 075°31'0 0.0
2017-Mar-24 07:33N 39°43' W 075°31'0 0.0
2017-Mar-24 06:33N 39°43' W 075°31'0 0.0
2017-Mar-24 05:33N 39°43' W 075°31'0 0.0
2017-Mar-24 04:33N 39°43' W 075°31'0 0.0
2017-Mar-24 03:33N 39°43' W 075°31'0 0.0
2017-Mar-24 02:33N 39°43' W 075°31'0 0.0
2017-Mar-24 01:33N 39°43' W 075°31'0 0.0
2017-Mar-24 00:33N 39°43' W 075°31'0 0.0
2017-Mar-23 23:34N 39°43' W 075°31'0 0.0
2017-Mar-23 22:33N 39°43' W 075°31'0 0.0
2017-Mar-23 21:33N 39°43' W 075°31'0 0.0
2017-Mar-23 20:33N 39°43' W 075°31'0 0.0
2017-Mar-23 19:33N 39°43' W 075°31'0 0.4
2017-Mar-23 18:33N 39°43' W 075°31'9 9.3
2017-Mar-23 17:34N 39°34' W 075°33'10 9.8
2017-Mar-23 16:33N 39°24' W 075°30'1111.0
2017-Mar-23 15:33N 39°16' W 075°20'6 0.5
2017-Mar-23 04:12N 39°11' W 075°16'913.9
2017-Mar-23 03:33N 39°18' W 075°23'1413.6
2017-Mar-23 02:33N 39°29' W 075°34'7 6.5
2017-Mar-23 01:33N 39°35' W 075°35'0 0.0
2017-Mar-23 00:33N 39°35' W 075°35'0 0.1
2017-Mar-22 23:33N 39°35' W 075°35'0 0.0
2017-Mar-22 22:33N 39°35' W 075°35'0 0.0
2017-Mar-22 21:33N 39°35' W 075°35'0 0.0
2017-Mar-22 20:33N 39°35' W 075°35'0 0.0
2017-Mar-22 19:33N 39°35' W 075°35'0 0.0
2017-Mar-22 18:33N 39°35' W 075°35'0 0.0
2017-Mar-22 17:33N 39°35' W 075°35'0 0.0
2017-Mar-22 16:33N 39°35' W 075°35'0 0.0
2017-Mar-22 15:33N 39°35' W 075°35'0 0.0
2017-Mar-22 14:33N 39°35' W 075°35'0 0.0
2017-Mar-22 13:33N 39°35' W 075°35'0 0.0
2017-Mar-22 12:33N 39°35' W 075°35'0 0.0
2017-Mar-22 11:33N 39°35' W 075°35'1 0.7
2017-Mar-22 10:33N 39°35' W 075°35'1312.8
2017-Mar-22 09:33N 39°23' W 075°28'1414.1
2017-Mar-22 08:33N 39°12' W 075°17'1312.6
2017-Mar-22 07:33N 38°60' W 075°13'0 0.4
2017-Mar-22 06:33N 38°59' W 075°13'3 3.0
2017-Mar-22 05:33N 39°02' W 075°14'9 9.0
2017-Mar-22 04:33N 39°11' W 075°16'1211.8
2017-Mar-22 03:33N 39°20' W 075°25'1413.8
2017-Mar-22 02:34N 39°33' W 075°33'1312.8
2017-Mar-22 01:34N 39°45' W 075°29'5 4.6
2017-Mar-22 00:34N 39°48' W 075°25'2 2.3
2017-Mar-21 23:33N 39°50' W 075°22'9 9.2
2017-Mar-21 22:34N 39°53' W 075°11'0 0.0
2017-Mar-21 21:33N 39°53' W 075°11'0 0.0
2017-Mar-21 20:34N 39°53' W 075°11'0 0.0
2017-Mar-21 19:34N 39°53' W 075°11'  

Dump ship's entire track history